Time,TemperatureF,DewpointF,PressureIn,WindDirection,WindDirectionDegrees,WindSpeedMPH,WindSpeedGustMPH,Humidity,HourlyPrecipIn,Conditions,Clouds,dailyrainin,SolarRadiationWatts/m^2,SoftwareType,DateUTC
2013-05-14 00:02:00,27.0,12.0,29.50,North,351,0.0,2.0,54,-99.99,,,-99.99,0.400000,,2013-05-14 08:02:00,
2013-05-14 00:11:00,26.0,13.0,29.50,ENE,61,0.0,2.0,56,-99.99,,,-99.99,0.200000,,2013-05-14 08:11:00,
2013-05-14 00:21:00,25.0,14.0,29.50,SE,135,1.0,1.0,60,-99.99,,,-99.99,0.200000,,2013-05-14 08:21:00,
2013-05-14 00:31:00,24.0,15.0,29.51,ESE,109,1.0,1.0,66,-99.99,,,-99.99,0.100000,,2013-05-14 08:31:00,
2013-05-14 00:41:00,24.0,14.0,29.51,East,91,1.0,2.0,62,-99.99,,,-99.99,0.000000,,2013-05-14 08:41:00,
2013-05-14 00:51:00,24.0,13.0,29.51,ESE,103,1.0,2.0,63,-99.99,,,-99.99,0.100000,,2013-05-14 08:51:00,
2013-05-14 01:01:00,24.0,13.0,29.51,East,99,0.0,1.0,62,-99.99,,,-99.99,0.000000,,2013-05-14 09:01:00,
2013-05-14 01:11:00,23.0,13.0,29.51,ESE,107,0.0,1.0,64,-99.99,,,-99.99,0.100000,,2013-05-14 09:11:00,
2013-05-14 01:21:00,23.0,13.0,29.51,ESE,108,0.0,1.0,66,-99.99,,,-99.99,0.000000,,2013-05-14 09:21:00,
2013-05-14 01:32:00,23.0,13.0,29.51,North,0,0.0,0.0,65,-99.99,,,-99.99,0.000000,,2013-05-14 09:32:00,
2013-05-14 01:44:00,23.0,13.0,29.51,North,0,0.0,0.0,66,-99.99,,,-99.99,0.000000,,2013-05-14 09:44:00,
2013-05-14 01:54:00,22.0,14.0,29.51,North,0,0.0,0.0,69,-99.99,,,-99.99,0.100000,,2013-05-14 09:54:00,
2013-05-14 02:04:00,22.0,13.0,29.51,ESE,104,0.0,1.0,66,-99.99,,,-99.99,0.000000,,2013-05-14 10:04:00,
2013-05-14 02:14:00,22.0,12.0,29.51,East,90,1.0,1.0,65,-99.99,,,-99.99,0.000000,,2013-05-14 10:14:00,
2013-05-14 02:25:00,21.0,12.0,29.52,East,86,1.0,1.0,67,-99.99,,,-99.99,0.000000,,2013-05-14 10:25:00,
2013-05-14 02:32:00,21.0,12.0,29.52,East,82,1.0,1.0,69,-99.99,,,-99.99,0.000000,,2013-05-14 10:32:00,
2013-05-14 02:42:00,21.0,12.0,29.52,East,82,1.0,1.0,68,-99.99,,,-99.99,0.000000,,2013-05-14 10:42:00,
2013-05-14 02:52:00,21.0,11.0,29.52,East,82,1.0,1.0,67,-99.99,,,-99.99,0.100000,,2013-05-14 10:52:00,
2013-05-14 03:02:00,20.0,11.0,29.52,East,82,1.0,1.0,67,-99.99,,,-99.99,0.000000,,2013-05-14 11:02:00,
2013-05-14 03:11:00,20.0,11.0,29.52,East,82,1.0,1.0,67,-99.99,,,-99.99,0.100000,,2013-05-14 11:11:00,
2013-05-14 03:21:00,20.0,12.0,29.52,East,83,0.0,1.0,69,-99.99,,,-99.99,0.200000,,2013-05-14 11:21:00,
2013-05-14 03:32:00,20.0,12.0,29.52,East,84,0.0,0.0,69,-99.99,,,-99.99,0.200000,,2013-05-14 11:32:00,
2013-05-14 03:43:00,20.0,12.0,29.53,North,0,0.0,0.0,68,-99.99,,,-99.99,0.200000,,2013-05-14 11:43:00,
2013-05-14 03:52:00,21.0,12.0,29.53,East,82,0.0,1.0,68,-99.99,,,-99.99,0.200000,,2013-05-14 11:52:00,
2013-05-14 04:02:00,21.0,13.0,29.53,East,86,0.0,0.0,71,-99.99,,,-99.99,0.200000,,2013-05-14 12:02:00,
2013-05-14 04:11:00,21.0,14.0,29.53,East,90,0.0,0.0,73,-99.99,,,-99.99,0.300000,,2013-05-14 12:11:00,
2013-05-14 04:21:00,21.0,12.0,29.53,East,89,0.0,1.0,69,-99.99,,,-99.99,0.600000,,2013-05-14 12:21:00,
2013-05-14 04:31:00,21.0,13.0,29.53,East,89,0.0,1.0,70,-99.99,,,-99.99,0.900000,,2013-05-14 12:31:00,
2013-05-14 04:41:00,21.0,14.0,29.53,East,94,0.0,1.0,72,-99.99,,,-99.99,1.300000,,2013-05-14 12:41:00,
2013-05-14 04:51:00,21.0,13.0,29.53,North,0,0.0,0.0,70,-99.99,,,-99.99,2.000000,,2013-05-14 12:51:00,
2013-05-14 05:01:00,21.0,13.0,29.53,East,91,0.0,1.0,68,-99.99,,,-99.99,3.100000,,2013-05-14 13:01:00,
2013-05-14 05:11:00,21.0,13.0,29.53,East,89,0.0,0.0,69,-99.99,,,-99.99,4.900000,,2013-05-14 13:11:00,
2013-05-14 05:22:00,22.0,13.0,29.53,North,0,0.0,0.0,67,-99.99,,,-99.99,8.600000,,2013-05-14 13:22:00,
2013-05-14 05:32:00,22.0,13.0,29.53,East,96,0.0,1.0,69,-99.99,,,-99.99,13.500000,,2013-05-14 13:32:00,
2013-05-14 05:41:00,22.0,13.0,29.53,SE,127,0.0,2.0,66,-99.99,,,-99.99,18.400000,,2013-05-14 13:41:00,
2013-05-14 05:51:00,22.0,13.0,29.53,ESE,107,1.0,2.0,65,-99.99,,,-99.99,23.500000,,2013-05-14 13:51:00,
2013-05-14 06:01:00,23.0,12.0,29.53,East,91,1.0,2.0,61,-99.99,,,-99.99,31.400000,,2013-05-14 14:01:00,
2013-05-14 06:11:00,23.0,12.0,29.53,East,99,0.0,1.0,63,-99.99,,,-99.99,41.299999,,2013-05-14 14:11:00,
2013-05-14 06:22:00,23.0,15.0,29.53,North,0,0.0,0.0,70,-99.99,,,-99.99,55.599998,,2013-05-14 14:22:00,
2013-05-14 06:31:00,23.0,16.0,29.52,ESE,110,0.0,1.0,72,-99.99,,,-99.99,56.400002,,2013-05-14 14:31:00,
2013-05-14 06:41:00,23.0,13.0,29.53,North,0,0.0,0.0,63,-99.99,,,-99.99,64.400002,,2013-05-14 14:41:00,
2013-05-14 06:52:00,23.0,13.0,29.52,North,0,0.0,0.0,64,-99.99,,,-99.99,68.300003,,2013-05-14 14:52:00,
2013-05-14 07:01:00,24.0,13.0,29.52,North,0,0.0,0.0,61,-99.99,,,-99.99,75.500000,,2013-05-14 15:01:00,
2013-05-14 07:11:00,24.0,14.0,29.53,South,182,0.0,1.0,64,-99.99,,,-99.99,96.000000,,2013-05-14 15:11:00,
2013-05-14 07:21:00,24.0,14.0,29.53,WSW,239,0.0,1.0,64,-99.99,,,-99.99,115.300003,,2013-05-14 15:21:00,
2013-05-14 07:32:00,24.0,14.0,29.53,SW,227,0.0,2.0,62,-99.99,,,-99.99,128.800003,,2013-05-14 15:32:00,
2013-05-14 07:42:00,25.0,15.0,29.52,SW,214,0.0,2.0,64,-99.99,,,-99.99,139.800003,,2013-05-14 15:42:00,
2013-05-14 07:53:00,25.0,13.0,29.53,SW,235,0.0,2.0,60,-99.99,,,-99.99,176.699997,,2013-05-14 15:53:00,
2013-05-14 08:02:00,25.0,13.0,29.53,SSW,195,0.0,2.0,57,-99.99,,,-99.99,168.800003,,2013-05-14 16:02:00,
2013-05-14 08:12:00,25.0,11.0,29.52,WSW,241,0.0,2.0,52,-99.99,,,-99.99,147.300003,,2013-05-14 16:12:00,
2013-05-14 08:22:00,26.0,10.0,29.52,West,279,0.0,2.0,51,-99.99,,,-99.99,138.699997,,2013-05-14 16:22:00,
2013-05-14 08:33:00,26.0,9.0,29.52,WNW,294,1.0,2.0,48,-99.99,,,-99.99,154.699997,,2013-05-14 16:33:00,
2013-05-14 08:43:00,26.0,10.0,29.52,NW,309,1.0,3.0,49,-99.99,,,-99.99,316.399994,,2013-05-14 16:43:00,
2013-05-14 08:54:00,27.0,10.0,29.52,NW,311,1.0,5.0,47,-99.99,,,-99.99,249.600006,,2013-05-14 16:54:00,
2013-05-14 09:03:00,27.0,9.0,29.52,SW,225,1.0,3.0,46,-99.99,,,-99.99,198.699997,,2013-05-14 17:03:00,
2013-05-14 09:13:00,28.0,9.0,29.52,WNW,302,0.0,3.0,45,-99.99,,,-99.99,359.299988,,2013-05-14 17:13:00,
2013-05-14 09:24:00,27.0,9.0,29.52,NW,320,1.0,3.0,45,-99.99,,,-99.99,328.799988,,2013-05-14 17:24:00,
2013-05-14 09:32:00,27.0,9.0,29.52,NNW,334,1.0,3.0,44,-99.99,,,-99.99,349.799988,,2013-05-14 17:32:00,
2013-05-14 09:43:00,28.0,9.0,29.52,WNW,288,1.0,4.0,43,-99.99,,,-99.99,403.200012,,2013-05-14 17:43:00,
2013-05-14 09:52:00,29.0,9.0,29.52,West,259,1.0,4.0,42,-99.99,,,-99.99,466.799988,,2013-05-14 17:52:00,
2013-05-14 10:01:00,29.0,9.0,29.52,ESE,109,1.0,4.0,42,-99.99,,,-99.99,450.899994,,2013-05-14 18:01:00,
2013-05-14 10:12:00,28.0,8.0,29.52,SSW,203,1.0,3.0,42,-99.99,,,-99.99,377.100006,,2013-05-14 18:12:00,
2013-05-14 10:22:00,28.0,9.0,29.52,WSW,245,1.0,4.0,42,-99.99,,,-99.99,387.200012,,2013-05-14 18:22:00,
2013-05-14 10:31:00,30.0,10.0,29.52,NW,316,2.0,5.0,42,-99.99,,,-99.99,427.299988,,2013-05-14 18:31:00,
2013-05-14 10:42:00,30.0,10.0,29.52,NNW,344,1.0,5.0,41,-99.99,,,-99.99,467.399994,,2013-05-14 18:42:00,
2013-05-14 10:52:00,29.0,8.0,29.52,WSW,248,1.0,4.0,40,-99.99,,,-99.99,530.599976,,2013-05-14 18:52:00,
2013-05-14 11:01:00,29.0,9.0,29.52,ENE,67,2.0,6.0,41,-99.99,,,-99.99,482.299988,,2013-05-14 19:01:00,
2013-05-14 11:11:00,30.0,9.0,29.52,ENE,60,1.0,4.0,39,-99.99,,,-99.99,630.599976,,2013-05-14 19:11:00,
2013-05-14 11:21:00,32.0,10.0,29.52,East,80,2.0,5.0,39,-99.99,,,-99.99,667.299988,,2013-05-14 19:21:00,
2013-05-14 11:31:00,30.0,9.0,29.52,SSE,157,2.0,4.0,39,-99.99,,,-99.99,600.500000,,2013-05-14 19:31:00,
2013-05-14 11:41:00,31.0,9.0,29.52,SSE,147,2.0,5.0,39,-99.99,,,-99.99,594.299988,,2013-05-14 19:41:00,
2013-05-14 11:52:00,31.0,10.0,29.51,ESE,108,2.0,7.0,39,-99.99,,,-99.99,618.700012,,2013-05-14 19:52:00,
2013-05-14 12:02:00,32.0,10.0,29.51,SSE,150,3.0,8.0,39,-99.99,,,-99.99,573.799988,,2013-05-14 20:02:00,
2013-05-14 12:11:00,33.0,11.0,29.51,SE,135,2.0,6.0,39,-99.99,,,-99.99,587.299988,,2013-05-14 20:11:00,
2013-05-14 12:22:00,31.0,10.0,29.51,SW,227,1.0,4.0,41,-99.99,,,-99.99,570.299988,,2013-05-14 20:22:00,
2013-05-14 12:32:00,33.0,11.0,29.51,East,90,2.0,6.0,39,-99.99,,,-99.99,566.599976,,2013-05-14 20:32:00,
2013-05-14 12:44:00,33.0,11.0,29.51,NNE,29,2.0,5.0,39,-99.99,,,-99.99,550.000000,,2013-05-14 20:44:00,
2013-05-14 12:51:00,33.0,11.0,29.51,SE,125,2.0,4.0,38,-99.99,,,-99.99,577.799988,,2013-05-14 20:51:00,
2013-05-14 13:03:00,33.0,11.0,29.51,SE,129,2.0,5.0,39,-99.99,,,-99.99,554.500000,,2013-05-14 21:03:00,
2013-05-14 13:12:00,33.0,11.0,29.51,NE,56,1.0,5.0,39,-99.99,,,-99.99,562.099976,,2013-05-14 21:12:00,
2013-05-14 13:22:00,33.0,11.0,29.51,SE,139,2.0,5.0,39,-99.99,,,-99.99,594.599976,,2013-05-14 21:22:00,
2013-05-14 13:33:00,34.0,11.0,29.51,ENE,67,2.0,5.0,38,-99.99,,,-99.99,483.899994,,2013-05-14 21:33:00,
2013-05-14 13:42:00,32.0,10.0,29.51,WSW,253,2.0,5.0,39,-99.99,,,-99.99,454.299988,,2013-05-14 21:42:00,
2013-05-14 13:52:00,34.0,12.0,29.51,SSW,201,2.0,4.0,39,-99.99,,,-99.99,469.100006,,2013-05-14 21:52:00,
2013-05-14 14:03:00,33.0,11.0,29.51,East,95,1.0,4.0,39,-99.99,,,-99.99,484.500000,,2013-05-14 22:03:00,
2013-05-14 14:13:00,35.0,12.0,29.51,NNE,32,1.0,4.0,37,-99.99,,,-99.99,639.000000,,2013-05-14 22:13:00,
2013-05-14 14:24:00,35.0,13.0,29.50,NNE,14,2.0,4.0,39,-99.99,,,-99.99,546.299988,,2013-05-14 22:24:00,
2013-05-14 14:34:00,35.0,13.0,29.50,North,5,2.0,5.0,40,-99.99,,,-99.99,497.600006,,2013-05-14 22:34:00,
2013-05-14 14:44:00,34.0,11.0,29.50,ESE,108,2.0,5.0,38,-99.99,,,-99.99,479.399994,,2013-05-14 22:44:00,
2013-05-14 14:54:00,35.0,13.0,29.50,WNW,302,2.0,6.0,39,-99.99,,,-99.99,423.600006,,2013-05-14 22:54:00,
2013-05-14 15:03:00,34.0,11.0,29.50,NE,53,1.0,2.0,38,-99.99,,,-99.99,436.899994,,2013-05-14 23:03:00,
2013-05-14 15:12:00,35.0,12.0,29.50,ESE,103,0.0,2.0,37,-99.99,,,-99.99,499.799988,,2013-05-14 23:12:00,
2013-05-14 15:21:00,35.0,13.0,29.50,WNW,282,1.0,4.0,38,-99.99,,,-99.99,495.000000,,2013-05-14 23:21:00,
2013-05-14 15:31:00,35.0,12.0,29.50,East,97,1.0,5.0,38,-99.99,,,-99.99,460.700012,,2013-05-14 23:31:00,
2013-05-14 15:44:00,36.0,13.0,29.50,North,356,2.0,4.0,37,-99.99,,,-99.99,460.399994,,2013-05-14 23:44:00,
2013-05-14 15:52:00,35.0,12.0,29.50,SSE,148,3.0,6.0,37,-99.99,,,-99.99,427.799988,,2013-05-14 23:52:00,
2013-05-14 16:01:00,36.0,12.0,29.50,SW,220,1.0,5.0,36,-99.99,,,-99.99,470.100006,,2013-05-15 00:01:00,
2013-05-14 16:11:00,35.0,11.0,29.50,East,87,1.0,5.0,36,-99.99,,,-99.99,483.899994,,2013-05-15 00:11:00,
2013-05-14 16:21:00,36.0,12.0,29.50,SE,132,2.0,5.0,35,-99.99,,,-99.99,473.399994,,2013-05-15 00:21:00,
2013-05-14 16:32:00,36.0,12.0,29.49,North,0,2.0,4.0,35,-99.99,,,-99.99,431.799988,,2013-05-15 00:32:00,
2013-05-14 16:41:00,37.0,13.0,29.49,WNW,294,2.0,5.0,36,-99.99,,,-99.99,422.899994,,2013-05-15 00:41:00,
2013-05-14 16:51:00,37.0,13.0,29.49,NNW,343,1.0,3.0,36,-99.99,,,-99.99,409.600006,,2013-05-15 00:51:00,
2013-05-14 17:01:00,37.0,12.0,29.49,NNW,346,1.0,3.0,35,-99.99,,,-99.99,417.100006,,2013-05-15 01:01:00,
2013-05-14 17:11:00,36.0,12.0,29.49,SW,236,1.0,3.0,35,-99.99,,,-99.99,479.799988,,2013-05-15 01:11:00,
2013-05-14 17:21:00,37.0,13.0,29.49,SW,231,2.0,5.0,36,-99.99,,,-99.99,463.500000,,2013-05-15 01:21:00,
2013-05-14 17:31:00,38.0,14.0,29.49,WNW,297,2.0,6.0,36,-99.99,,,-99.99,468.700012,,2013-05-15 01:31:00,
2013-05-14 17:42:00,39.0,15.0,29.49,West,273,2.0,6.0,36,-99.99,,,-99.99,497.399994,,2013-05-15 01:42:00,
2013-05-14 17:51:00,39.0,14.0,29.49,WSW,255,2.0,8.0,36,-99.99,,,-99.99,532.000000,,2013-05-15 01:51:00,
2013-05-14 18:01:00,38.0,13.0,29.49,SW,216,2.0,4.0,35,-99.99,,,-99.99,457.299988,,2013-05-15 02:01:00,
2013-05-14 18:11:00,39.0,15.0,29.49,SW,224,1.0,5.0,36,-99.99,,,-99.99,463.100006,,2013-05-15 02:11:00,
2013-05-14 18:21:00,39.0,14.0,29.49,SW,224,2.0,5.0,36,-99.99,,,-99.99,461.799988,,2013-05-15 02:21:00,
2013-05-14 18:31:00,40.0,15.0,29.49,WSW,243,2.0,8.0,35,-99.99,,,-99.99,392.799988,,2013-05-15 02:31:00,
2013-05-14 18:41:00,39.0,15.0,29.49,SSW,212,1.0,4.0,37,-99.99,,,-99.99,371.500000,,2013-05-15 02:41:00,
2013-05-14 18:51:00,39.0,14.0,29.50,West,267,2.0,7.0,36,-99.99,,,-99.99,377.100006,,2013-05-15 02:51:00,
2013-05-14 19:01:00,39.0,14.0,29.50,West,266,1.0,5.0,35,-99.99,,,-99.99,405.899994,,2013-05-15 03:01:00,
2013-05-14 19:12:00,38.0,15.0,29.50,WNW,298,3.0,8.0,38,-99.99,,,-99.99,298.100006,,2013-05-15 03:12:00,
2013-05-14 19:21:00,38.0,14.0,29.50,WNW,283,2.0,5.0,37,-99.99,,,-99.99,284.299988,,2013-05-15 03:21:00,
2013-05-14 19:33:00,38.0,16.0,29.50,WNW,285,2.0,6.0,39,-99.99,,,-99.99,253.399994,,2013-05-15 03:33:00,
2013-05-14 19:43:00,38.0,15.0,29.50,West,274,2.0,6.0,39,-99.99,,,-99.99,249.199997,,2013-05-15 03:43:00,
2013-05-14 19:53:00,37.0,14.0,29.51,West,274,2.0,5.0,39,-99.99,,,-99.99,195.300003,,2013-05-15 03:53:00,
2013-05-14 20:03:00,36.0,15.0,29.51,West,272,1.0,6.0,40,-99.99,,,-99.99,175.699997,,2013-05-15 04:03:00,
2013-05-14 20:12:00,36.0,15.0,29.51,WNW,284,1.0,5.0,41,-99.99,,,-99.99,150.800003,,2013-05-15 04:12:00,
2013-05-14 20:23:00,35.0,15.0,29.51,WSW,255,1.0,7.0,42,-99.99,,,-99.99,141.800003,,2013-05-15 04:23:00,
2013-05-14 20:32:00,35.0,14.0,29.51,West,270,1.0,5.0,42,-99.99,,,-99.99,136.899994,,2013-05-15 04:32:00,
2013-05-14 20:42:00,35.0,14.0,29.51,West,262,1.0,4.0,41,-99.99,,,-99.99,125.099998,,2013-05-15 04:42:00,
2013-05-14 20:52:00,35.0,15.0,29.51,West,272,2.0,5.0,43,-99.99,,,-99.99,115.599998,,2013-05-15 04:52:00,
2013-05-14 21:02:00,35.0,15.0,29.51,West,259,0.0,3.0,44,-99.99,,,-99.99,94.500000,,2013-05-15 05:02:00,
2013-05-14 21:11:00,34.0,14.0,29.51,WSW,239,0.0,2.0,43,-99.99,,,-99.99,75.000000,,2013-05-15 05:11:00,
2013-05-14 21:22:00,34.0,15.0,29.51,West,267,1.0,3.0,45,-99.99,,,-99.99,58.599998,,2013-05-15 05:22:00,
2013-05-14 21:32:00,33.0,15.0,29.51,West,271,1.0,3.0,45,-99.99,,,-99.99,47.700001,,2013-05-15 05:32:00,
2013-05-14 21:42:00,33.0,15.0,29.51,SW,233,0.0,2.0,46,-99.99,,,-99.99,43.099998,,2013-05-15 05:42:00,
2013-05-14 21:52:00,33.0,15.0,29.51,SW,223,0.0,2.0,46,-99.99,,,-99.99,40.099998,,2013-05-15 05:52:00,
2013-05-14 22:02:00,33.0,15.0,29.51,SSW,193,0.0,2.0,47,-99.99,,,-99.99,31.299999,,2013-05-15 06:02:00,
2013-05-14 22:11:00,32.0,15.0,29.51,SSE,152,1.0,2.0,48,-99.99,,,-99.99,34.700001,,2013-05-15 06:11:00,
2013-05-14 22:21:00,32.0,15.0,29.51,SSE,152,1.0,2.0,47,-99.99,,,-99.99,23.600000,,2013-05-15 06:21:00,
2013-05-14 22:31:00,32.0,15.0,29.52,SSE,167,1.0,3.0,48,-99.99,,,-99.99,19.700001,,2013-05-15 06:31:00,
2013-05-14 22:41:00,32.0,15.0,29.52,SSE,155,0.0,2.0,49,-99.99,,,-99.99,14.800000,,2013-05-15 06:41:00,
2013-05-14 22:51:00,31.0,15.0,29.52,SE,129,0.0,1.0,51,-99.99,,,-99.99,7.100000,,2013-05-15 06:51:00,
2013-05-14 23:01:00,30.0,15.0,29.52,SSE,160,0.0,1.0,52,-99.99,,,-99.99,5.100000,,2013-05-15 07:01:00,
2013-05-14 23:11:00,29.0,15.0,29.52,South,181,0.0,0.0,54,-99.99,,,-99.99,2.700000,,2013-05-15 07:11:00,
2013-05-14 23:21:00,29.0,15.0,29.52,North,0,0.0,0.0,54,-99.99,,,-99.99,1.800000,,2013-05-15 07:21:00,
2013-05-14 23:31:00,29.0,15.0,29.52,South,178,0.0,2.0,55,-99.99,,,-99.99,1.100000,,2013-05-15 07:31:00,
2013-05-14 23:41:00,30.0,15.0,29.52,SSE,153,1.0,3.0,52,-99.99,,,-99.99,0.600000,,2013-05-15 07:41:00,
2013-05-14 23:52:00,30.0,15.0,29.53,South,182,1.0,2.0,53,-99.99,,,-99.99,0.300000,,2013-05-15 07:52:00,